Autoridad de Aeronautica Civil de Panamá


metar




ESTACIONES DESCRIPCION
MPTO (M) 060900Z 00000KT 9999 SCT018 25/24 Q1013 NOSIG=  
MPBO (M)  
MPCH (M)  
MPSA (M) 042300Z 22010KT 9999 SCT015TCU SCT080 28/25 Q1008 RMK TCU NW-NE-E DSTN PCPN E=  
MPCE (M) 032100Z 00000KT 9999 SCT015 BKN090 28/// Q1009 RWY DAMP=  
MPPN (M) 032100Z 21008KT 9999 SCT015TCU OVC080 28/24 RMK TCU W-N-E=  
MPSM (M) 042100Z E16008KT 9999 FEW030 30/23 Q1007  
MPJE (M)  
MPPA (M) 042300Z 00000KT 9999 FEW017 29/25 Q100=  
MPMG (M) 052200Z 18006KT 9999 FEW020 29/25 Q1010 NOSIG  
MPDA (M) 041200Z 36003KT(E) 9999 SCT016 SCT120 24/24 Q1010=  
MPVR (M) 032100Z 22018KT(E) 9000 VCSH SCT020TCU BKN100 RMK TCU ALQDS PCPN E=  
MPWN FUERA DE SERVICIO  
MPOA (M)  
MPMF (M)  
MPEJ (M) 032100Z 19012KT 9000 VCSH SCT018TCU 32/26 Q1010 RMK TCU W/NE PCPN NE=  


 

CLIMATICAS

MPTO

5 JUNIO 2020

 

PCPN (mm)

T° MAX

T° MIN

VIENTO MAX (KT)

HORA

VIENTO PREDOM (KT)

00.0

29.2

24.6

17007KT

2100Z

S 07KT

 

 

CLIMATICAS

MPMG

05- JUNIO - 2020

PCPN (mm)

T° MAX

T° MIN

VIENTO MAX (KT)

HORA

VIENTO PREDOM (KT)

0.0

29.7

25.5

18006KT

2200Z

S

 



Contador: 20065